createdAt,value
2018-05-16T00:00:17.018Z,19.19
2018-05-16T00:01:21.170Z,19.11
2018-05-16T00:02:25.446Z,19.10
2018-05-16T00:03:29.920Z,19.13
2018-05-16T00:04:34.032Z,19.04
2018-05-16T00:05:38.173Z,18.99
2018-05-16T00:06:42.290Z,19.00
2018-05-16T00:07:46.494Z,19.09
2018-05-16T00:08:50.966Z,18.96
2018-05-16T00:09:55.084Z,18.89
2018-05-16T00:10:59.733Z,18.93
2018-05-16T00:12:03.876Z,18.89
2018-05-16T00:13:08.029Z,18.90
2018-05-16T00:14:12.200Z,18.85
2018-05-16T00:15:16.664Z,18.97
2018-05-16T00:16:20.761Z,18.87
2018-05-16T00:17:24.893Z,18.74
2018-05-16T00:18:29.111Z,18.74
2018-05-16T00:19:33.268Z,18.76
2018-05-16T00:20:37.706Z,18.81
2018-05-16T00:21:41.825Z,18.81
2018-05-16T00:22:45.954Z,18.78
2018-05-16T00:23:51.207Z,18.80
2018-05-16T00:24:56.193Z,18.74
2018-05-16T00:26:01.302Z,18.69
2018-05-16T00:27:05.692Z,18.69
2018-05-16T00:28:09.816Z,18.69
2018-05-16T00:29:14.026Z,18.73
2018-05-16T00:30:18.896Z,18.67
2018-05-16T00:31:23.212Z,18.67
2018-05-16T00:32:27.358Z,18.65
2018-05-16T00:33:31.867Z,18.62
2018-05-16T00:34:36.021Z,18.61
2018-05-16T00:35:40.243Z,18.51
2018-05-16T00:36:44.341Z,18.43
2018-05-16T00:37:48.433Z,18.39
2018-05-16T00:38:52.548Z,18.37
2018-05-16T00:39:56.729Z,18.39
2018-05-16T00:41:00.840Z,18.49
2018-05-16T00:42:04.966Z,18.52
2018-05-16T00:43:09.078Z,18.48
2018-05-16T00:44:13.613Z,18.44
2018-05-16T00:45:17.884Z,18.43
2018-05-16T00:46:22.003Z,18.31
2018-05-16T00:47:26.149Z,18.18
2018-05-16T00:48:30.306Z,18.18
2018-05-16T00:49:34.422Z,18.15
2018-05-16T00:50:39.049Z,18.15
2018-05-16T00:51:43.206Z,18.08
2018-05-16T00:52:47.322Z,18.01
2018-05-16T00:53:51.438Z,18.03
2018-05-16T00:54:55.562Z,18.10
2018-05-16T00:55:59.749Z,18.00
2018-05-16T00:57:04.174Z,17.92
2018-05-16T00:58:08.365Z,17.97
2018-05-16T00:59:12.500Z,17.94
2018-05-16T01:00:17.111Z,17.93
2018-05-16T01:01:21.240Z,17.82
2018-05-16T01:02:25.328Z,17.94
2018-05-16T01:03:29.882Z,17.98
2018-05-16T01:04:34.012Z,17.89
2018-05-16T01:05:38.204Z,17.91
2018-05-16T01:06:42.356Z,17.92
2018-05-16T01:07:46.458Z,17.84
2018-05-16T01:08:50.665Z,17.74
2018-05-16T01:09:55.894Z,17.71
2018-05-16T01:11:00.033Z,17.75
2018-05-16T01:12:04.308Z,17.79
2018-05-16T01:13:08.456Z,17.77
2018-05-16T01:14:12.577Z,17.87
2018-05-16T01:15:17.058Z,17.87
2018-05-16T01:16:21.562Z,18.00
2018-05-16T01:17:25.700Z,18.04
2018-05-16T01:18:29.828Z,17.99
2018-05-16T01:19:33.962Z,17.94
2018-05-16T01:20:38.159Z,17.99
2018-05-16T01:21:42.262Z,17.97
2018-05-16T01:22:46.680Z,17.98
2018-05-16T01:23:50.851Z,18.09
2018-05-16T01:24:55.028Z,17.99
2018-05-16T01:25:59.190Z,17.84
2018-05-16T01:27:03.372Z,17.75
2018-05-16T01:28:07.486Z,17.75
2018-05-16T01:29:12.001Z,17.78
2018-05-16T01:30:16.516Z,17.73
2018-05-16T01:31:20.620Z,17.84
2018-05-16T01:32:24.736Z,17.83
2018-05-16T01:33:28.956Z,17.84
2018-05-16T01:34:33.066Z,17.78
2018-05-16T01:35:37.457Z,17.74
2018-05-16T01:36:41.574Z,17.72
2018-05-16T01:37:45.805Z,17.73
2018-05-16T01:38:49.947Z,17.68
2018-05-16T01:39:55.092Z,17.60
2018-05-16T01:41:00.380Z,17.57
2018-05-16T01:42:04.492Z,17.52
2018-05-16T01:43:08.602Z,17.45
2018-05-16T01:44:12.838Z,17.42
2018-05-16T01:45:17.168Z,17.53
2018-05-16T01:46:21.389Z,17.46
2018-05-16T01:47:25.812Z,17.39
2018-05-16T01:48:30.025Z,17.35
2018-05-16T01:49:34.156Z,17.37
2018-05-16T01:50:38.327Z,17.32
2018-05-16T01:51:42.494Z,17.29
2018-05-16T01:52:46.614Z,17.32
2018-05-16T01:53:51.122Z,17.34
2018-05-16T01:54:55.241Z,17.36
2018-05-16T01:55:59.350Z,17.36
2018-05-16T01:57:03.476Z,17.42
2018-05-16T01:58:07.686Z,17.41
2018-05-16T01:59:11.883Z,17.43
2018-05-16T02:00:17.498Z,17.46
2018-05-16T02:01:22.079Z,17.43
2018-05-16T02:02:26.398Z,17.41
2018-05-16T02:03:30.896Z,17.38
2018-05-16T02:04:35.032Z,17.41
2018-05-16T02:05:39.416Z,17.48
2018-05-16T02:06:43.816Z,17.56
2018-05-16T02:07:47.928Z,17.56
2018-05-16T02:08:52.444Z,17.59
2018-05-16T02:09:56.886Z,17.61
2018-05-16T02:11:01.438Z,17.70
2018-05-16T02:12:05.958Z,17.78
2018-05-16T02:13:10.683Z,17.87
2018-05-16T02:14:15.110Z,17.89
2018-05-16T02:15:19.701Z,17.77
2018-05-16T02:16:23.798Z,17.72
2018-05-16T02:17:27.901Z,17.69
2018-05-16T02:18:32.115Z,17.58
2018-05-16T02:19:36.535Z,17.58
2018-05-16T02:20:40.632Z,17.58
2018-05-16T02:21:44.728Z,17.61
2018-05-16T02:24:03.327Z,17.56
2018-05-16T02:25:08.077Z,17.49
2018-05-16T02:26:12.471Z,17.54
2018-05-16T02:27:16.566Z,17.51
2018-05-16T02:28:20.737Z,17.43
2018-05-16T02:29:24.858Z,17.34
2018-05-16T02:30:29.412Z,17.30
2018-05-16T02:31:33.538Z,17.24
2018-05-16T02:32:37.979Z,17.35
2018-05-16T02:33:42.085Z,17.43
2018-05-16T02:34:46.430Z,17.43
2018-05-16T02:35:50.553Z,17.40
2018-05-16T02:36:55.336Z,17.31
2018-05-16T02:38:00.266Z,17.30
2018-05-16T02:39:04.977Z,17.29
2018-05-16T02:40:09.577Z,17.22
2018-05-16T02:41:13.682Z,17.23
2018-05-16T02:42:17.841Z,17.31
2018-05-16T02:43:21.966Z,17.35
2018-05-16T02:44:26.474Z,17.33
2018-05-16T02:45:30.884Z,17.31
2018-05-16T02:46:35.498Z,17.24
2018-05-16T02:47:39.911Z,17.16
2018-05-16T02:48:44.044Z,17.09
2018-05-16T02:49:48.215Z,17.09
2018-05-16T02:50:53.322Z,17.11
2018-05-16T02:51:57.818Z,17.20
2018-05-16T02:53:02.877Z,17.24
2018-05-16T02:54:07.962Z,17.31
2018-05-16T02:55:12.058Z,17.31
2018-05-16T02:56:16.156Z,17.27
2018-05-16T02:57:20.626Z,17.37
2018-05-16T02:58:24.740Z,17.34
2018-05-16T02:59:28.836Z,17.38
2018-05-16T03:00:33.404Z,17.54
2018-05-16T03:01:38.016Z,17.61
2018-05-16T03:02:42.148Z,17.65
2018-05-16T03:03:46.258Z,17.64
2018-05-16T03:04:50.464Z,17.65
2018-05-16T03:05:54.574Z,17.62
2018-05-16T03:06:58.680Z,17.59
2018-05-16T03:08:02.786Z,17.66
2018-05-16T03:09:07.040Z,17.72
2018-05-16T03:10:11.496Z,17.68
2018-05-16T03:11:15.625Z,17.59
2018-05-16T03:12:19.808Z,17.53
2018-05-16T03:13:23.906Z,17.57
2018-05-16T03:14:28.026Z,17.68
2018-05-16T03:15:32.125Z,17.75
2018-05-16T03:16:36.588Z,17.79
2018-05-16T03:17:40.712Z,17.70
2018-05-16T03:18:44.912Z,17.63
2018-05-16T03:19:49.006Z,17.72
2018-05-16T03:20:53.134Z,17.65
2018-05-16T03:21:58.220Z,17.57
2018-05-16T03:23:02.717Z,17.60
2018-05-16T03:24:06.846Z,17.50
2018-05-16T03:25:10.952Z,17.51
2018-05-16T03:26:15.144Z,17.60
2018-05-16T03:27:19.302Z,17.57
2018-05-16T03:28:23.506Z,17.54
2018-05-16T03:29:27.608Z,17.59
2018-05-16T03:30:31.784Z,17.60
2018-05-16T03:31:35.911Z,17.62
2018-05-16T03:32:40.170Z,17.68
2018-05-16T03:33:44.372Z,17.73
2018-05-16T03:34:49.244Z,17.78
2018-05-16T03:35:53.435Z,17.86
2018-05-16T03:36:58.434Z,17.86
2018-05-16T03:38:02.527Z,17.82
2018-05-16T03:39:06.928Z,17.82
2018-05-16T03:40:11.091Z,17.81
2018-05-16T03:41:15.504Z,17.82
2018-05-16T03:42:19.676Z,17.89
2018-05-16T03:43:23.792Z,17.83
2018-05-16T03:44:27.990Z,17.78
2018-05-16T03:45:32.561Z,17.78
2018-05-16T03:46:37.010Z,17.73
2018-05-16T03:47:41.416Z,17.68
2018-05-16T03:48:45.696Z,17.67
2018-05-16T03:49:49.872Z,17.68
2018-05-16T03:50:53.977Z,17.80
2018-05-16T03:51:58.215Z,17.84
2018-05-16T03:53:02.327Z,17.93
2018-05-16T03:54:06.512Z,18.00
2018-05-16T03:55:11.180Z,17.97
2018-05-16T03:56:15.372Z,18.01
2018-05-16T03:57:28.260Z,17.99
2018-05-16T04:00:47.780Z,17.84
2018-05-16T04:04:05.877Z,17.86
2018-05-16T04:05:10.949Z,17.74
2018-05-16T04:06:15.152Z,17.73
2018-05-16T04:07:19.568Z,17.80
2018-05-16T04:08:23.682Z,17.88
2018-05-16T04:09:27.800Z,17.86
2018-05-16T04:10:32.023Z,17.91
2018-05-16T04:11:36.146Z,17.91
2018-05-16T04:12:40.236Z,17.78
2018-05-16T04:13:44.698Z,17.72
2018-05-16T04:14:48.906Z,17.71
2018-05-16T04:15:53.272Z,17.71
2018-05-16T04:16:57.732Z,17.77
2018-05-16T04:18:02.468Z,17.79
2018-05-16T04:19:06.589Z,17.76
2018-05-16T04:20:11.356Z,17.68
2018-05-16T04:21:15.584Z,17.59
2018-05-16T04:22:19.779Z,17.58
2018-05-16T04:24:33.968Z,17.68
2018-05-16T04:25:38.796Z,17.75
2018-05-16T04:26:42.941Z,17.77
2018-05-16T04:27:47.146Z,17.79
2018-05-16T04:28:51.381Z,17.81
2018-05-16T04:29:55.544Z,17.79
2018-05-16T04:30:59.796Z,17.94
2018-05-16T04:32:04.516Z,17.97
2018-05-16T04:33:09.272Z,17.95
2018-05-16T04:34:13.644Z,18.00
2018-05-16T04:35:17.750Z,18.02
2018-05-16T04:36:21.877Z,17.99
2018-05-16T04:37:26.064Z,17.95
2018-05-16T04:38:30.240Z,17.88
2018-05-16T04:39:34.364Z,17.90
2018-05-16T04:40:38.458Z,17.91
2018-05-16T04:41:42.724Z,17.95
2018-05-16T04:42:46.867Z,17.97
2018-05-16T04:43:51.018Z,17.96
2018-05-16T04:44:55.216Z,18.00
2018-05-16T04:45:59.592Z,17.98
2018-05-16T04:47:03.927Z,18.03
2018-05-16T04:48:08.170Z,18.05
2018-05-16T04:49:12.348Z,17.96
2018-05-16T04:50:16.768Z,17.93
2018-05-16T04:51:20.865Z,17.87
2018-05-16T04:52:24.969Z,17.84
2018-05-16T04:53:29.067Z,17.89
2018-05-16T04:54:33.198Z,18.01
2018-05-16T04:55:37.288Z,18.06
2018-05-16T04:56:41.758Z,18.05
2018-05-16T04:57:45.895Z,18.00
2018-05-16T04:58:50.010Z,18.00
2018-05-16T04:59:54.214Z,17.96
2018-05-16T05:00:59.212Z,17.93
2018-05-16T05:02:04.264Z,17.93
2018-05-16T05:03:08.908Z,17.94
2018-05-16T05:04:13.014Z,18.02
2018-05-16T05:05:17.204Z,18.05
2018-05-16T05:06:21.372Z,18.01
2018-05-16T05:07:25.483Z,18.07
2018-05-16T05:08:29.602Z,18.13
2018-05-16T05:09:33.784Z,18.20
2018-05-16T05:10:37.964Z,18.19
2018-05-16T05:11:42.080Z,18.09
2018-05-16T05:12:46.204Z,17.95
2018-05-16T05:13:50.288Z,17.95
2018-05-16T05:14:54.496Z,17.83
2018-05-16T05:15:58.883Z,17.62
2018-05-16T05:17:03.636Z,17.49
2018-05-16T05:18:07.886Z,17.44
2018-05-16T05:19:12.030Z,17.44
2018-05-16T05:20:16.896Z,17.40
2018-05-16T05:21:21.021Z,17.31
2018-05-16T05:22:25.128Z,17.29
2018-05-16T05:23:29.306Z,17.34
2018-05-16T05:24:33.410Z,17.29
2018-05-16T05:25:37.854Z,17.25
2018-05-16T05:26:41.970Z,17.16
2018-05-16T05:27:46.219Z,17.15
2018-05-16T05:28:50.372Z,17.10
2018-05-16T05:29:54.557Z,17.22
2018-05-16T05:30:58.985Z,17.39
2018-05-16T05:32:04.745Z,17.67
2018-05-16T05:33:08.869Z,17.98
2018-05-16T05:34:13.772Z,18.21
2018-05-16T05:35:17.897Z,18.32
2018-05-16T05:36:22.104Z,18.31
2018-05-16T05:37:26.210Z,18.19
2018-05-16T05:38:30.742Z,18.01
2018-05-16T05:39:34.832Z,17.94
2018-05-16T05:40:38.968Z,17.87
2018-05-16T05:41:43.124Z,17.94
2018-05-16T05:42:47.246Z,17.94
2018-05-16T05:43:51.390Z,17.99
2018-05-16T05:44:55.718Z,18.04
2018-05-16T05:46:00.202Z,17.95
2018-05-16T05:47:04.604Z,17.93
2018-05-16T05:48:09.536Z,17.94
2018-05-16T05:49:14.714Z,17.98
2018-05-16T05:50:18.775Z,18.06
2018-05-16T05:51:23.203Z,18.21
2018-05-16T05:52:27.425Z,18.32
2018-05-16T05:53:31.552Z,18.43
2018-05-16T05:54:35.704Z,18.44
2018-05-16T05:55:39.910Z,18.27
2018-05-16T05:56:44.137Z,18.24
2018-05-16T05:57:48.277Z,18.15
2018-05-16T05:58:52.522Z,18.06
2018-05-16T05:59:56.729Z,17.95
2018-05-16T06:01:00.923Z,17.83
2018-05-16T06:02:05.845Z,17.81
2018-05-16T06:03:10.774Z,17.84
2018-05-16T06:04:15.028Z,17.83
2018-05-16T06:05:19.125Z,17.92
2018-05-16T06:06:23.318Z,18.15
2018-05-16T06:07:27.432Z,18.30
2018-05-16T06:08:31.538Z,18.25
2018-05-16T06:09:35.753Z,18.27
2018-05-16T06:10:39.919Z,18.44
2018-05-16T06:11:44.056Z,18.38
2018-05-16T06:12:48.283Z,18.22
2018-05-16T06:13:52.401Z,17.86
2018-05-16T06:14:56.499Z,17.57
2018-05-16T06:16:00.972Z,17.36
2018-05-16T06:17:06.059Z,17.12
2018-05-16T06:18:11.171Z,17.01
2018-05-16T06:19:15.283Z,16.82
2018-05-16T06:20:19.420Z,16.63
2018-05-16T06:21:23.881Z,16.51
2018-05-16T06:22:28.003Z,16.44
2018-05-16T06:23:32.217Z,16.47
2018-05-16T06:24:36.326Z,16.54
2018-05-16T06:25:40.496Z,16.59
2018-05-16T06:26:44.616Z,16.62
2018-05-16T06:27:49.042Z,16.57
2018-05-16T06:28:53.237Z,16.55
2018-05-16T06:29:57.403Z,16.47
2018-05-16T06:31:01.653Z,16.42
2018-05-16T06:32:06.365Z,16.39
2018-05-16T06:33:10.474Z,16.42
2018-05-16T06:34:15.453Z,16.45
2018-05-16T06:35:19.585Z,16.41
2018-05-16T06:36:23.783Z,16.33
2018-05-16T06:37:27.923Z,16.28
2018-05-16T06:38:32.069Z,16.32
2018-05-16T06:39:36.190Z,16.34
2018-05-16T06:40:40.320Z,16.44
2018-05-16T06:41:44.450Z,16.83
2018-05-16T06:42:48.602Z,17.17
2018-05-16T06:43:52.715Z,17.21
2018-05-16T06:44:57.141Z,17.26
2018-05-16T06:46:01.748Z,17.36
2018-05-16T06:47:05.875Z,17.29
2018-05-16T06:48:10.053Z,17.28
2018-05-16T06:49:14.186Z,17.29
2018-05-16T06:50:18.295Z,17.34
2018-05-16T06:51:23.475Z,17.47
2018-05-16T06:52:27.682Z,17.64
2018-05-16T06:53:31.799Z,17.75
2018-05-16T06:54:35.901Z,17.87
2018-05-16T06:55:40.115Z,18.04
2018-05-16T06:56:44.236Z,18.05
2018-05-16T06:57:48.795Z,18.04
2018-05-16T06:58:52.892Z,17.85
2018-05-16T06:59:57.102Z,17.78
2018-05-16T07:01:01.593Z,17.87
2018-05-16T07:02:05.801Z,18.03
2018-05-16T07:03:10.004Z,18.10
2018-05-16T07:04:14.478Z,18.03
2018-05-16T07:05:18.595Z,17.91
2018-05-16T07:06:23.679Z,17.94
2018-05-16T07:07:27.924Z,17.98
2018-05-16T07:08:32.028Z,18.03
2018-05-16T07:09:36.206Z,18.09
2018-05-16T07:10:40.363Z,18.14
2018-05-16T07:11:44.463Z,18.32
2018-05-16T07:12:48.719Z,18.42
2018-05-16T07:13:52.817Z,18.48
2018-05-16T07:14:56.950Z,18.49
2018-05-16T07:16:01.573Z,18.60
2018-05-16T07:17:05.994Z,18.78
2018-05-16T07:18:10.141Z,18.80
2018-05-16T07:19:14.251Z,18.76
2018-05-16T07:20:19.170Z,18.82
2018-05-16T07:21:23.275Z,18.85
2018-05-16T07:22:27.465Z,19.04
2018-05-16T07:23:31.972Z,19.20
2018-05-16T07:24:36.087Z,19.13
2018-05-16T07:25:40.187Z,19.05
2018-05-16T07:26:44.380Z,18.97
2018-05-16T07:27:48.527Z,19.18
2018-05-16T07:28:52.672Z,19.20
2018-05-16T07:29:57.429Z,19.25
2018-05-16T07:31:01.988Z,19.28
2018-05-16T07:32:06.087Z,19.35
2018-05-16T07:33:10.336Z,19.43
2018-05-16T07:34:14.613Z,19.41
2018-05-16T07:35:18.894Z,19.50
2018-05-16T07:36:23.293Z,19.82
2018-05-16T07:37:27.395Z,20.16
2018-05-16T07:38:31.522Z,20.41
2018-05-16T07:39:35.637Z,20.77
2018-05-16T07:40:39.822Z,21.05
2018-05-16T07:41:44.224Z,21.25
2018-05-16T07:42:48.359Z,21.24
2018-05-16T07:43:52.473Z,21.21
2018-05-16T07:44:56.590Z,21.34
2018-05-16T07:46:01.149Z,21.45
2018-05-16T07:47:05.314Z,21.49
2018-05-16T07:48:09.792Z,21.62
2018-05-16T07:49:14.018Z,21.71
2018-05-16T07:50:18.954Z,21.65
2018-05-16T07:51:24.061Z,21.58
2018-05-16T07:52:28.241Z,21.41
2018-05-16T07:53:32.410Z,21.32
2018-05-16T07:54:36.850Z,21.37
2018-05-16T07:55:40.949Z,21.45
2018-05-16T07:56:45.120Z,21.44
2018-05-16T07:57:49.220Z,21.16
2018-05-16T07:58:53.388Z,21.16
2018-05-16T07:59:57.575Z,21.33
2018-05-16T08:01:01.928Z,21.49
2018-05-16T08:02:06.051Z,21.60
2018-05-16T08:03:10.294Z,21.86
2018-05-16T08:05:36.986Z,22.35
2018-05-16T08:06:41.406Z,22.54
2018-05-16T08:07:45.541Z,22.67
2018-05-16T08:08:49.683Z,22.80
2018-05-16T08:09:53.833Z,22.80
2018-05-16T08:10:58.053Z,22.74
2018-05-16T08:12:02.183Z,22.75
2018-05-16T08:13:06.639Z,22.59
2018-05-16T08:14:10.848Z,22.47
2018-05-16T08:15:16.834Z,22.53
2018-05-16T08:16:21.091Z,22.63
2018-05-16T08:17:26.088Z,22.74
2018-05-16T08:18:30.202Z,22.78
2018-05-16T08:19:34.339Z,22.52
2018-05-16T08:20:38.591Z,22.38
2018-05-16T08:21:42.803Z,22.19
2018-05-16T08:22:46.837Z,22.17
2018-05-16T08:23:51.009Z,22.18
2018-05-16T08:24:55.195Z,22.22
2018-05-16T08:25:59.341Z,22.22
2018-05-16T08:27:03.504Z,22.26
2018-05-16T08:28:07.622Z,22.42
2018-05-16T08:29:11.754Z,22.42
2018-05-16T08:30:17.089Z,22.21
2018-05-16T08:31:21.527Z,21.92
2018-05-16T08:32:26.437Z,21.93
2018-05-16T08:33:30.534Z,22.15
2018-05-16T08:34:34.724Z,22.33
2018-05-16T08:35:38.979Z,22.34
2018-05-16T08:36:42.998Z,22.36
2018-05-16T08:37:47.427Z,22.67
2018-05-16T08:38:51.524Z,23.16
2018-05-16T08:39:55.771Z,23.47
2018-05-16T08:40:59.902Z,23.99
2018-05-16T08:42:04.064Z,24.43
2018-05-16T08:43:08.185Z,24.64
2018-05-16T08:44:12.704Z,25.04
2018-05-16T08:45:17.560Z,25.28
2018-05-16T08:46:21.704Z,25.12
2018-05-16T08:47:26.519Z,25.03
2018-05-16T08:48:30.653Z,25.02
2018-05-16T08:49:34.846Z,24.79
2018-05-16T08:50:39.283Z,24.80
2018-05-16T08:51:43.408Z,24.35
2018-05-16T08:52:47.598Z,24.05
2018-05-16T08:53:51.707Z,24.25
2018-05-16T08:54:55.894Z,24.48
2018-05-16T08:56:00.336Z,24.71
2018-05-16T08:57:04.478Z,24.64
2018-05-16T08:58:08.612Z,24.68
2018-05-16T08:59:12.834Z,24.26
2018-05-16T09:00:18.029Z,23.71
2018-05-16T09:01:22.151Z,23.61
2018-05-16T09:02:26.318Z,23.79
2018-05-16T09:03:30.452Z,23.72
2018-05-16T09:04:34.689Z,24.22
2018-05-16T09:05:38.824Z,24.84
2018-05-16T09:06:42.937Z,25.09
2018-05-16T09:07:47.371Z,25.16
2018-05-16T09:08:51.477Z,25.23
2018-05-16T09:09:55.717Z,25.46
2018-05-16T09:10:59.860Z,25.62
2018-05-16T09:12:04.024Z,25.55
2018-05-16T09:13:08.156Z,25.76
2018-05-16T09:14:12.596Z,26.00
2018-05-16T09:15:17.318Z,26.05
2018-05-16T09:16:21.450Z,25.95
2018-05-16T09:17:25.731Z,26.11
2018-05-16T09:18:30.653Z,26.27
2018-05-16T09:19:34.889Z,26.29
2018-05-16T09:20:39.047Z,26.53
2018-05-16T09:21:43.172Z,26.61
2018-05-16T09:22:47.288Z,26.52
2018-05-16T09:23:51.468Z,26.38
2018-05-16T09:24:55.572Z,26.27
2018-05-16T09:25:59.767Z,26.49
2018-05-16T09:27:04.237Z,26.12
2018-05-16T09:28:08.346Z,26.23
2018-05-16T09:29:12.499Z,26.48
2018-05-16T09:30:16.978Z,26.75
2018-05-16T09:31:22.187Z,26.93
2018-05-16T09:32:26.756Z,27.17
2018-05-16T09:33:31.681Z,27.27
2018-05-16T09:34:35.779Z,27.43
2018-05-16T09:35:39.898Z,27.54
2018-05-16T09:36:44.176Z,27.77
2018-05-16T09:37:48.311Z,27.86
2018-05-16T09:38:52.508Z,27.50
2018-05-16T09:39:56.949Z,27.53
2018-05-16T09:41:01.100Z,27.78
2018-05-16T09:42:05.208Z,28.17
2018-05-16T09:43:09.369Z,28.27
2018-05-16T09:44:13.614Z,28.37
2018-05-16T09:45:18.098Z,28.16
2018-05-16T09:46:22.223Z,28.34
2018-05-16T09:47:27.347Z,28.63
2018-05-16T09:48:31.476Z,28.77
2018-05-16T09:49:35.681Z,28.66
2018-05-16T09:50:39.778Z,28.71
2018-05-16T09:51:44.184Z,28.57
2018-05-16T09:52:48.387Z,28.66
2018-05-16T09:53:52.541Z,28.94
2018-05-16T09:54:56.682Z,29.18
2018-05-16T09:56:00.882Z,29.26
2018-05-16T09:57:05.066Z,29.34
2018-05-16T09:58:09.666Z,29.48
2018-05-16T09:59:13.900Z,29.64
2018-05-16T10:00:22.150Z,29.61
2018-05-16T10:01:27.048Z,29.83
2018-05-16T10:02:31.514Z,29.99
2018-05-16T10:03:35.616Z,30.31
2018-05-16T10:04:40.136Z,30.71
2018-05-16T10:05:44.264Z,30.66
2018-05-16T10:06:48.372Z,29.87
2018-05-16T10:07:52.506Z,29.90
2018-05-16T10:08:56.716Z,29.97
2018-05-16T10:10:00.863Z,30.12
2018-05-16T10:11:04.990Z,30.38
2018-05-16T10:12:09.084Z,30.74
2018-05-16T10:13:13.368Z,31.00
2018-05-16T10:14:17.538Z,31.00
2018-05-16T10:15:21.703Z,30.59
2018-05-16T10:16:25.808Z,30.46
2018-05-16T10:17:30.324Z,30.09
2018-05-16T10:18:34.449Z,30.19
2018-05-16T10:19:38.579Z,30.68
2018-05-16T10:20:42.796Z,30.83
2018-05-16T10:21:46.998Z,30.73
2018-05-16T10:22:51.246Z,30.71
2018-05-16T10:23:55.699Z,30.42
2018-05-16T10:24:59.852Z,30.06
2018-05-16T10:26:03.996Z,29.81
2018-05-16T10:27:08.300Z,29.62
2018-05-16T10:28:13.029Z,29.62
2018-05-16T10:29:17.276Z,30.04
2018-05-16T10:30:22.639Z,29.71
2018-05-16T10:31:27.463Z,29.55
2018-05-16T10:32:31.596Z,29.46
2018-05-16T10:33:36.682Z,29.06
2018-05-16T10:34:40.833Z,28.91
2018-05-16T10:35:45.004Z,28.92
2018-05-16T10:36:49.431Z,28.78
2018-05-16T10:37:53.655Z,28.96
2018-05-16T10:38:57.804Z,29.09
2018-05-16T10:40:02.033Z,28.77
2018-05-16T10:41:06.178Z,28.81
2018-05-16T10:42:10.604Z,28.64
2018-05-16T10:43:14.914Z,28.17
2018-05-16T10:44:19.045Z,28.00
2018-05-16T10:45:23.204Z,28.10
2018-05-16T10:46:27.692Z,28.15
2018-05-16T10:47:32.205Z,28.25
2018-05-16T10:48:36.678Z,28.02
2018-05-16T10:49:40.868Z,27.90
2018-05-16T10:50:45.839Z,27.78
2018-05-16T10:51:49.954Z,27.82
2018-05-16T10:52:54.073Z,27.87
2018-05-16T10:53:58.360Z,27.65
2018-05-16T10:55:02.776Z,27.92
2018-05-16T10:56:06.896Z,28.46
2018-05-16T10:57:11.034Z,28.61
2018-05-16T10:58:15.302Z,28.54
2018-05-16T10:59:19.416Z,28.29
2018-05-16T11:00:23.967Z,28.10
2018-05-16T11:01:28.248Z,28.16
2018-05-16T11:02:32.422Z,28.09
2018-05-16T11:03:37.158Z,28.17
2018-05-16T11:04:42.222Z,28.70
2018-05-16T11:05:46.436Z,28.85
2018-05-16T11:06:50.560Z,28.97
2018-05-16T11:07:55.000Z,29.33
2018-05-16T11:08:59.088Z,29.30
2018-05-16T11:10:03.306Z,29.52
2018-05-16T11:11:07.522Z,30.06
2018-05-16T11:12:11.627Z,30.32
2018-05-16T11:13:15.754Z,30.17
2018-05-16T11:14:20.239Z,30.41
2018-05-16T11:15:24.705Z,30.62
2018-05-16T11:16:28.812Z,30.87
2018-05-16T11:17:32.921Z,30.82
2018-05-16T11:18:37.068Z,30.89
2018-05-16T11:19:41.229Z,30.73
2018-05-16T11:20:45.806Z,31.01
2018-05-16T11:21:49.916Z,31.04
2018-05-16T11:22:54.784Z,30.82
2018-05-16T11:23:58.914Z,30.84
2018-05-16T11:25:03.084Z,30.87
2018-05-16T11:26:07.258Z,31.02
2018-05-16T11:27:11.808Z,31.12
2018-05-16T11:28:15.933Z,31.39
2018-05-16T11:29:20.046Z,31.84
2018-05-16T11:30:24.252Z,32.09
2018-05-16T11:31:28.374Z,31.74
2018-05-16T11:32:32.886Z,31.39
2018-05-16T11:33:37.031Z,30.58
2018-05-16T11:34:41.282Z,30.07
2018-05-16T11:35:45.450Z,29.88
2018-05-16T11:36:49.614Z,30.23
2018-05-16T11:37:53.815Z,30.29
2018-05-16T11:38:58.883Z,30.59
2018-05-16T11:40:03.036Z,30.98
2018-05-16T11:41:06.796Z,31.19
2018-05-16T11:42:11.035Z,31.50
2018-05-16T11:43:19.286Z,31.55
2018-05-16T11:44:23.506Z,31.71
2018-05-16T11:45:27.902Z,31.49
2018-05-16T11:46:32.352Z,30.81
2018-05-16T11:47:36.476Z,30.65
2018-05-16T11:48:40.708Z,30.53
2018-05-16T11:49:44.808Z,30.56
2018-05-16T11:50:49.410Z,30.65
2018-05-16T11:51:53.650Z,30.71
2018-05-16T11:52:58.328Z,30.88
2018-05-16T11:54:02.434Z,31.05
2018-05-16T11:55:06.552Z,31.37
2018-05-16T11:56:10.778Z,31.25
2018-05-16T11:57:14.908Z,30.55
2018-05-16T11:58:19.036Z,30.19
2018-05-16T11:59:23.202Z,30.12
2018-05-16T12:00:27.554Z,30.34
2018-05-16T12:01:31.672Z,30.68
2018-05-16T12:02:35.887Z,30.59
2018-05-16T12:03:40.388Z,30.45
2018-05-16T12:04:44.511Z,30.19
2018-05-16T12:05:48.654Z,30.44
2018-05-16T12:06:54.240Z,30.30
2018-05-16T12:07:58.361Z,29.92
2018-05-16T12:09:02.613Z,29.87
2018-05-16T12:10:07.116Z,29.81
2018-05-16T12:11:11.290Z,30.03
2018-05-16T12:12:15.421Z,30.14
2018-05-16T12:13:19.538Z,30.48
2018-05-16T12:14:23.852Z,30.56
2018-05-16T12:15:28.820Z,30.44
2018-05-16T12:16:33.259Z,30.31
2018-05-16T12:17:37.437Z,30.20
2018-05-16T12:18:41.567Z,30.56
2018-05-16T12:19:45.815Z,30.83
2018-05-16T12:20:50.237Z,31.16
2018-05-16T12:21:54.640Z,30.78
2018-05-16T12:22:59.369Z,30.36
2018-05-16T12:24:03.528Z,30.84
2018-05-16T12:25:07.741Z,30.42
2018-05-16T12:26:11.901Z,29.66
2018-05-16T12:27:16.104Z,29.71
2018-05-16T12:28:20.544Z,29.98
2018-05-16T12:29:24.684Z,29.91
2018-05-16T12:30:28.917Z,30.44
2018-05-16T12:31:33.560Z,31.51
2018-05-16T12:32:37.832Z,32.02
2018-05-16T12:33:42.140Z,31.81
2018-05-16T12:34:47.934Z,31.76
2018-05-16T12:35:52.091Z,31.29
2018-05-16T12:36:56.242Z,31.25
2018-05-16T12:38:01.108Z,32.09
2018-05-16T12:39:07.632Z,32.90
2018-05-16T12:40:12.046Z,32.78
2018-05-16T12:41:16.182Z,32.23
2018-05-16T12:42:20.313Z,31.97
2018-05-16T12:43:30.777Z,31.97
2018-05-16T12:44:35.037Z,31.93
2018-05-16T12:45:39.183Z,30.54
2018-05-16T12:46:43.640Z,30.45
2018-05-16T12:47:48.172Z,31.20
2018-05-16T12:48:52.990Z,31.41
2018-05-16T12:49:57.152Z,31.16
2018-05-16T12:51:01.282Z,31.47
2018-05-16T12:52:05.417Z,31.83
2018-05-16T12:53:09.856Z,32.05
2018-05-16T12:54:14.080Z,31.78
2018-05-16T12:55:18.191Z,31.78
2018-05-16T12:56:22.304Z,31.43
2018-05-16T12:57:26.426Z,31.53
2018-05-16T12:58:30.927Z,31.46
2018-05-16T12:59:35.134Z,31.84
2018-05-16T13:00:39.336Z,32.23
2018-05-16T13:01:43.848Z,32.30
2018-05-16T13:02:48.108Z,32.55
2018-05-16T13:03:52.340Z,32.26
2018-05-16T13:04:56.860Z,32.17
2018-05-16T13:06:01.766Z,31.90
2018-05-16T13:07:05.975Z,31.74
2018-05-16T13:08:10.141Z,31.75
2018-05-16T13:09:14.261Z,31.53
2018-05-16T13:10:18.462Z,31.91
2018-05-16T13:11:22.974Z,31.63
2018-05-16T13:12:27.114Z,31.56
2018-05-16T13:13:31.258Z,32.12
2018-05-16T13:14:35.471Z,31.92
2018-05-16T13:15:39.791Z,32.01
2018-05-16T13:16:44.081Z,32.00
2018-05-16T13:17:48.567Z,31.70
2018-05-16T13:18:52.672Z,31.57
2018-05-16T13:19:56.899Z,30.99
2018-05-16T13:21:01.160Z,30.98
2018-05-16T13:22:05.324Z,31.17
2018-05-16T13:23:09.475Z,31.35
2018-05-16T13:24:13.914Z,31.60
2018-05-16T13:25:18.151Z,30.76
2018-05-16T13:26:22.404Z,30.45
2018-05-16T13:27:26.520Z,30.60
2018-05-16T13:28:30.641Z,30.63
2018-05-16T13:29:34.756Z,31.11
2018-05-16T13:30:39.560Z,30.66
2018-05-16T13:31:43.902Z,30.27
2018-05-16T13:32:48.060Z,30.40
2018-05-16T13:33:53.236Z,30.64
2018-05-16T13:34:57.496Z,30.63
2018-05-16T13:36:01.645Z,31.19
2018-05-16T13:37:06.142Z,31.73
2018-05-16T13:38:10.250Z,31.49
2018-05-16T13:39:14.428Z,30.85
2018-05-16T13:40:18.620Z,30.51
2018-05-16T13:41:22.843Z,30.35
2018-05-16T13:42:26.983Z,30.74
2018-05-16T13:43:31.109Z,31.45
2018-05-16T13:44:35.326Z,31.26
2018-05-16T13:45:39.764Z,31.10
2018-05-16T13:46:44.090Z,30.92
2018-05-16T13:47:49.012Z,30.76
2018-05-16T13:48:53.750Z,30.29
2018-05-16T13:49:57.882Z,30.13
2018-05-16T13:51:02.614Z,30.52
2018-05-16T13:52:07.752Z,30.57
2018-05-16T13:53:11.878Z,30.40
2018-05-16T13:54:16.067Z,30.29
2018-05-16T13:55:21.385Z,30.55
2018-05-16T13:56:25.548Z,30.74